createdAt,value
2016-09-07T00:03:50.277Z,70.41
2016-09-07T00:08:46.962Z,70.21
2016-09-07T00:13:43.576Z,69.83
2016-09-07T00:18:40.241Z,70.21
2016-09-07T00:23:36.833Z,70.31
2016-09-07T00:28:33.409Z,70.31
2016-09-07T00:33:29.961Z,69.93
2016-09-07T00:38:26.721Z,69.93
2016-09-07T00:43:23.143Z,70.31
2016-09-07T00:48:20.094Z,70.12
2016-09-07T00:53:16.774Z,69.54
2016-09-07T00:58:13.615Z,69.54
2016-09-07T01:03:10.217Z,69.73
2016-09-07T01:08:06.763Z,69.83
2016-09-07T01:13:03.464Z,69.25
2016-09-07T01:18:00.019Z,68.87
2016-09-07T01:22:56.672Z,69.25
2016-09-07T01:27:53.161Z,69.25
2016-09-07T01:32:50.164Z,68.93
2016-09-07T01:37:47.137Z,68.96
2016-09-07T01:42:43.807Z,68.93
2016-09-07T01:47:40.967Z,68.84
2016-09-07T01:52:37.742Z,69.02
2016-09-07T01:57:34.368Z,68.74
2016-09-07T02:02:31.338Z,69.02
2016-09-07T02:07:28.048Z,68.74
2016-09-07T02:12:24.484Z,68.26
2016-09-07T02:17:20.964Z,68.35
2016-09-07T02:22:17.437Z,68.06
2016-09-07T02:27:14.520Z,68.16
2016-09-07T02:32:11.124Z,68.64
2016-09-07T02:37:07.646Z,68.06
2016-09-07T02:42:03.990Z,68.93
2016-09-07T02:47:00.315Z,68.74
2016-09-07T02:51:56.815Z,68.70
2016-09-07T02:56:53.467Z,68.70
2016-09-07T03:01:49.916Z,68.60
2016-09-07T03:06:46.470Z,68.99
2016-09-07T03:11:43.330Z,68.41
2016-09-07T03:16:40.195Z,68.03
2016-09-07T03:21:36.548Z,68.70
2016-09-07T03:26:32.985Z,68.60
2016-09-07T03:31:29.589Z,68.60
2016-09-07T03:36:26.102Z,68.70
2016-09-07T03:41:22.587Z,68.60
2016-09-07T03:46:19.112Z,68.60
2016-09-07T03:51:16.206Z,68.51
2016-09-07T03:56:15.549Z,68.03
2016-09-07T04:01:11.492Z,68.60
2016-09-07T04:06:07.994Z,68.99
2016-09-07T04:11:04.994Z,68.51
2016-09-07T04:16:01.703Z,68.99
2016-09-07T04:20:58.184Z,68.51
2016-09-07T04:25:54.764Z,68.57
2016-09-07T04:30:51.839Z,68.80
2016-09-07T04:35:48.950Z,68.60
2016-09-07T04:40:45.465Z,68.70
2016-09-07T04:45:42.038Z,68.99
2016-09-07T04:50:39.014Z,68.57
2016-09-07T04:55:35.718Z,68.09
2016-09-07T05:00:32.032Z,68.67
2016-09-07T05:05:28.776Z,68.57
2016-09-07T05:10:25.661Z,68.22
2016-09-07T05:15:22.187Z,68.57
2016-09-07T05:20:19.186Z,68.29
2016-09-07T05:25:15.671Z,67.74
2016-09-07T05:30:12.391Z,68.32
2016-09-07T05:35:09.761Z,68.22
2016-09-07T05:40:07.517Z,67.93
2016-09-07T05:45:04.054Z,67.83
2016-09-07T05:50:01.037Z,67.83
2016-09-07T05:54:57.531Z,67.87
2016-09-07T05:59:54.248Z,67.39
2016-09-07T06:04:50.741Z,67.10
2016-09-07T06:09:47.322Z,67.00
2016-09-07T06:14:43.841Z,66.62
2016-09-07T06:19:41.504Z,66.42
2016-09-07T06:24:37.826Z,66.91
2016-09-07T06:29:34.472Z,66.91
2016-09-07T06:34:33.618Z,67.10
2016-09-07T06:39:29.788Z,67.19
2016-09-07T06:44:26.462Z,66.65
2016-09-07T06:49:23.330Z,66.65
2016-09-07T06:54:20.082Z,66.27
2016-09-07T06:59:16.839Z,66.85
2016-09-07T07:04:13.474Z,65.81
2016-09-07T07:09:10.550Z,65.81
2016-09-07T07:14:07.068Z,65.33
2016-09-07T07:19:03.782Z,65.72
2016-09-07T07:24:00.506Z,65.14
2016-09-07T07:28:57.139Z,65.14
2016-09-07T07:33:53.738Z,64.11
2016-09-07T07:38:50.419Z,64.11
2016-09-07T07:43:47.089Z,62.99
2016-09-07T07:48:44.148Z,61.09
2016-09-07T07:53:41.047Z,60.06
2016-09-07T07:58:38.024Z,60.54
2016-09-07T08:03:34.766Z,60.80
2016-09-07T08:08:31.847Z,61.28
2016-09-07T08:13:28.755Z,61.22
2016-09-07T08:18:26.243Z,59.80
2016-09-07T08:23:23.372Z,58.76
2016-09-07T08:28:20.254Z,57.79
2016-09-07T08:33:17.430Z,57.63
2016-09-07T08:38:14.411Z,57.44
2016-09-07T08:43:11.130Z,57.05
2016-09-07T08:48:07.984Z,56.40
2016-09-07T08:53:04.325Z,56.50
2016-09-07T08:58:00.657Z,56.50
2016-09-07T09:02:57.098Z,56.40
2016-09-07T09:07:53.963Z,56.88
2016-09-07T09:12:50.223Z,56.88
2016-09-07T09:17:47.003Z,57.54
2016-09-07T09:22:43.377Z,56.95
2016-09-07T09:27:40.125Z,58.21
2016-09-07T09:32:36.516Z,57.99
2016-09-07T09:37:33.460Z,58.57
2016-09-07T09:42:29.973Z,58.86
2016-09-07T09:47:26.553Z,59.53
2016-09-07T09:52:23.047Z,59.25
2016-09-07T09:57:19.679Z,59.05
2016-09-07T10:02:16.243Z,58.83
2016-09-07T10:07:13.114Z,59.12
2016-09-07T10:12:09.614Z,59.80
2016-09-07T10:17:06.346Z,59.51
2016-09-07T10:22:05.496Z,58.83
2016-09-07T10:27:01.601Z,59.02
2016-09-07T10:31:58.213Z,57.29
2016-09-07T10:36:54.799Z,56.80
2016-09-07T10:41:51.317Z,58.54
2016-09-07T10:46:47.929Z,58.64
2016-09-07T10:51:44.939Z,58.25
2016-09-07T10:56:41.804Z,56.80
2016-09-07T11:01:38.871Z,57.19
2016-09-07T11:06:36.894Z,57.96
2016-09-07T11:11:33.037Z,57.57
2016-09-07T11:16:29.640Z,57.38
2016-09-07T11:21:26.341Z,57.99
2016-09-07T11:26:22.831Z,57.67
2016-09-07T11:31:19.498Z,58.18
2016-09-07T11:36:16.096Z,58.15
2016-09-07T11:41:12.614Z,56.15
2016-09-07T11:46:09.413Z,55.96
2016-09-07T11:51:06.057Z,56.83
2016-09-07T11:56:05.111Z,56.93
2016-09-07T12:01:01.368Z,57.21
2016-09-07T12:05:58.055Z,56.45
2016-09-07T12:10:54.756Z,56.45
2016-09-07T12:15:53.868Z,57.31
2016-09-07T12:20:49.983Z,56.63
2016-09-07T12:25:46.609Z,55.67
2016-09-07T12:30:43.363Z,55.57
2016-09-07T12:35:40.025Z,55.09
2016-09-07T12:40:36.606Z,55.57
2016-09-07T12:45:33.183Z,56.54
2016-09-07T12:50:29.660Z,56.86
2016-09-07T12:55:26.457Z,56.25
2016-09-07T13:00:23.085Z,55.29
2016-09-07T13:05:19.631Z,56.05
2016-09-07T13:10:16.187Z,54.61
2016-09-07T13:15:12.829Z,54.71
2016-09-07T13:20:11.956Z,54.73
2016-09-07T13:25:08.128Z,54.15
2016-09-07T13:30:04.794Z,55.51
2016-09-07T13:35:01.498Z,53.93
2016-09-07T13:39:58.151Z,53.16
2016-09-07T13:44:54.917Z,55.02
2016-09-07T13:49:51.757Z,53.64
2016-09-07T13:54:48.659Z,53.19
2016-09-07T13:59:45.040Z,53.57
2016-09-07T14:04:41.862Z,53.57
2016-09-07T14:09:38.485Z,53.45
2016-09-07T14:14:35.244Z,53.47
2016-09-07T14:19:31.945Z,53.38
2016-09-07T14:24:28.564Z,52.02
2016-09-07T14:29:25.162Z,53.47
2016-09-07T14:34:21.923Z,51.93
2016-09-07T14:39:20.182Z,53.19
2016-09-07T14:44:16.423Z,52.22
2016-09-07T14:49:13.416Z,51.06
2016-09-07T14:54:10.140Z,49.80
2016-09-07T14:59:06.887Z,50.38
2016-09-07T15:04:03.551Z,50.76
2016-09-07T15:09:00.171Z,43.05
2016-09-07T15:13:57.349Z,45.08
2016-09-07T15:18:54.377Z,45.76
2016-09-07T15:23:50.896Z,51.66
2016-09-07T15:28:47.960Z,46.25
2016-09-07T15:33:44.819Z,46.83
2016-09-07T15:38:41.591Z,46.05
2016-09-07T15:43:38.655Z,45.37
2016-09-07T15:48:35.396Z,46.05
2016-09-07T15:53:31.965Z,45.37
2016-09-07T15:58:28.709Z,47.50
2016-09-07T16:03:25.567Z,55.63
2016-09-07T16:08:22.446Z,55.53
2016-09-07T16:13:19.234Z,64.66
2016-09-07T16:18:15.945Z,65.14
2016-09-07T16:23:12.597Z,58.17
2016-09-07T16:28:09.830Z,58.11
2016-09-07T16:33:06.597Z,57.43
2016-09-07T16:38:03.150Z,57.53
2016-09-07T16:42:59.928Z,57.71
2016-09-07T16:47:57.257Z,57.14
2016-09-07T16:52:56.484Z,53.72
2016-09-07T16:57:52.606Z,57.59
2016-09-07T17:02:49.339Z,57.08
2016-09-07T17:07:48.549Z,56.79
2016-09-07T17:12:44.971Z,57.08
2016-09-07T17:17:41.601Z,56.11
2016-09-07T17:22:38.397Z,56.50
2016-09-07T17:27:35.315Z,58.24
2016-09-07T17:32:31.987Z,57.44
2016-09-07T17:37:28.676Z,57.05
2016-09-07T17:42:25.448Z,59.08
2016-09-07T17:47:22.140Z,58.60
2016-09-07T17:52:19.569Z,58.86
2016-09-07T17:57:16.839Z,57.99
2016-09-07T18:02:13.418Z,57.99
2016-09-07T18:07:10.135Z,57.51
2016-09-07T18:12:07.925Z,57.41
2016-09-07T18:17:04.333Z,57.70
2016-09-07T18:22:01.681Z,57.89
2016-09-07T18:26:58.379Z,58.35
2016-09-07T18:31:55.187Z,58.64
2016-09-07T18:36:52.485Z,59.22
2016-09-07T18:41:49.205Z,59.12
2016-09-07T18:46:45.996Z,58.83
2016-09-07T18:51:42.975Z,59.12
2016-09-07T18:56:39.797Z,59.02
2016-09-07T19:01:36.685Z,59.22
2016-09-07T19:06:33.578Z,59.22
2016-09-07T19:11:30.458Z,59.77
2016-09-07T19:16:27.727Z,60.35
2016-09-07T19:21:24.592Z,60.54
2016-09-07T19:26:24.582Z,60.73
2016-09-07T19:31:20.931Z,61.99
2016-09-07T19:36:17.723Z,62.37
2016-09-07T19:41:14.698Z,62.66
2016-09-07T19:46:11.184Z,62.95
2016-09-07T19:51:08.090Z,63.05
2016-09-07T19:56:05.083Z,62.76
2016-09-07T20:01:02.000Z,62.92
2016-09-07T20:05:58.636Z,62.92
2016-09-07T20:10:56.833Z,62.73
2016-09-07T20:15:53.127Z,64.08
2016-09-07T20:20:50.019Z,63.89
2016-09-07T20:25:47.061Z,63.60
2016-09-07T20:30:43.747Z,63.40
2016-09-07T20:35:40.374Z,63.02
2016-09-07T20:40:36.788Z,62.44
2016-09-07T20:45:35.941Z,63.40
2016-09-07T20:50:32.227Z,63.40
2016-09-07T20:55:29.029Z,62.89
2016-09-07T21:00:25.585Z,63.37
2016-09-07T21:05:22.222Z,63.57
2016-09-07T21:10:18.612Z,63.09
2016-09-07T21:15:15.271Z,63.37
2016-09-07T21:20:11.831Z,63.47
2016-09-07T21:25:08.402Z,63.47
2016-09-07T21:30:04.977Z,63.37
2016-09-07T21:35:01.613Z,63.09
2016-09-07T21:39:58.099Z,64.24
2016-09-07T21:44:54.704Z,63.37
2016-09-07T21:49:51.370Z,63.67
2016-09-07T21:54:50.413Z,64.15
2016-09-07T21:59:46.135Z,64.24
2016-09-07T22:04:42.640Z,64.43
2016-09-07T22:09:39.262Z,63.76
2016-09-07T22:14:35.806Z,64.05
2016-09-07T22:19:32.397Z,64.15
2016-09-07T22:24:29.069Z,64.05
2016-09-07T22:29:25.774Z,63.85
2016-09-07T22:34:22.511Z,64.05
2016-09-07T22:39:19.246Z,63.95
2016-09-07T22:44:15.963Z,64.34
2016-09-07T22:49:12.622Z,64.34
2016-09-07T22:54:09.057Z,64.15
2016-09-07T22:59:05.784Z,64.15
2016-09-07T23:04:02.264Z,65.20
2016-09-07T23:08:59.684Z,64.92
2016-09-07T23:13:57.356Z,64.72
2016-09-07T23:18:53.838Z,65.20
2016-09-07T23:23:50.307Z,65.11
2016-09-07T23:28:46.960Z,65.01
2016-09-07T23:33:43.736Z,65.20
2016-09-07T23:38:40.595Z,65.11
2016-09-07T23:43:37.988Z,65.08
2016-09-07T23:48:34.778Z,65.85
2016-09-07T23:53:31.268Z,66.14
2016-09-07T23:58:27.747Z,66.08
